createdAt,value
2018-02-20T00:01:02.328Z,100723.23
2018-02-20T00:03:31.126Z,100720.14
2018-02-20T00:05:59.917Z,100715.61
2018-02-20T00:08:29.088Z,100720.82
2018-02-20T00:10:57.899Z,100713.14
2018-02-20T00:13:26.756Z,100717.69
2018-02-20T00:15:55.663Z,100718.73
2018-02-20T00:18:24.452Z,100715.11
2018-02-20T00:20:53.326Z,100714.58
2018-02-20T00:23:22.208Z,100712.75
2018-02-20T00:25:51.036Z,100713.79
2018-02-20T00:28:19.838Z,100715.72
2018-02-20T00:30:48.728Z,100714.32
2018-02-20T00:33:17.809Z,100706.77
2018-02-20T00:35:46.916Z,100712.36
2018-02-20T00:38:15.756Z,100701.08
2018-02-20T00:40:44.589Z,100706.81
2018-02-20T00:43:13.379Z,100711.15
2018-02-20T00:45:42.245Z,100700.16
2018-02-20T00:48:11.411Z,100702.70
2018-02-20T00:50:40.242Z,100697.16
2018-02-20T00:53:09.474Z,100702.98
2018-02-20T00:55:38.288Z,100701.11
2018-02-20T00:58:07.215Z,100695.56
2018-02-20T01:00:36.364Z,100692.01
2018-02-20T01:03:05.875Z,100700.01
2018-02-20T01:05:35.032Z,100700.39
2018-02-20T01:08:03.885Z,100695.58
2018-02-20T01:10:32.705Z,100686.38
2018-02-20T01:13:01.503Z,100692.83
2018-02-20T01:15:30.629Z,100689.52
2018-02-20T01:17:59.449Z,100695.10
2018-02-20T01:20:28.541Z,100691.00
2018-02-20T01:22:57.377Z,100691.66
2018-02-20T01:25:26.700Z,100688.77
2018-02-20T01:27:55.868Z,100692.15
2018-02-20T01:30:25.010Z,100688.34
2018-02-20T01:32:54.165Z,100692.20
2018-02-20T01:35:23.505Z,100685.78
2018-02-20T01:37:52.635Z,100680.23
2018-02-20T01:40:21.814Z,100685.35
2018-02-20T01:42:51.023Z,100678.41
2018-02-20T01:45:20.176Z,100682.79
2018-02-20T01:47:50.607Z,100674.95
2018-02-20T01:50:20.981Z,100669.06
2018-02-20T01:52:51.501Z,100670.75
2018-02-20T01:55:30.027Z,100674.02
2018-02-20T01:57:59.143Z,100672.03
2018-02-20T02:00:28.424Z,100670.00
2018-02-20T02:02:57.574Z,100678.63
2018-02-20T02:05:27.207Z,100677.81
2018-02-20T02:07:57.928Z,100673.03
2018-02-20T02:10:27.720Z,100670.47
2018-02-20T02:12:58.345Z,100662.19
2018-02-20T02:15:29.147Z,100661.66
2018-02-20T02:18:01.600Z,100658.43
2018-02-20T02:20:32.104Z,100659.91
2018-02-20T02:23:02.749Z,100657.95
2018-02-20T02:25:33.345Z,100655.69
2018-02-20T02:28:05.199Z,100653.70
2018-02-20T02:30:35.564Z,100649.34
2018-02-20T02:33:06.193Z,100656.52
2018-02-20T02:35:37.472Z,100650.64
2018-02-20T02:38:08.234Z,100653.45
2018-02-20T02:40:38.726Z,100648.88
2018-02-20T02:43:09.404Z,100648.83
2018-02-20T02:45:40.642Z,100648.97
2018-02-20T02:48:12.110Z,100649.92
2018-02-20T02:50:42.655Z,100647.62
2018-02-20T02:53:13.980Z,100640.73
2018-02-20T02:55:45.317Z,100647.80
2018-02-20T02:58:16.015Z,100642.14
2018-02-20T03:00:46.562Z,100644.70
2018-02-20T03:03:17.923Z,100654.05
2018-02-20T03:05:48.247Z,100645.05
2018-02-20T03:08:19.008Z,100650.04
2018-02-20T03:10:49.507Z,100652.86
2018-02-20T03:13:22.061Z,100649.20
2018-02-20T03:15:52.427Z,100652.03
2018-02-20T03:18:23.318Z,100654.02
2018-02-20T03:20:53.668Z,100650.56
2018-02-20T03:23:24.272Z,100655.58
2018-02-20T03:25:55.736Z,100654.28
2018-02-20T03:28:26.049Z,100651.03
2018-02-20T03:30:57.900Z,100656.61
2018-02-20T03:33:28.447Z,100659.21
2018-02-20T03:35:59.313Z,100651.03
2018-02-20T03:38:29.895Z,100659.47
2018-02-20T03:41:00.463Z,100650.24
2018-02-20T03:43:31.067Z,100645.69
2018-02-20T03:46:01.298Z,100654.05
2018-02-20T03:48:32.258Z,100655.22
2018-02-20T03:51:03.478Z,100656.56
2018-02-20T03:53:34.959Z,100651.06
2018-02-20T03:56:05.443Z,100654.97
2018-02-20T03:58:36.242Z,100656.31
2018-02-20T04:01:06.389Z,100648.59
2018-02-20T04:03:37.861Z,100648.34
2018-02-20T04:06:08.573Z,100647.48
2018-02-20T04:08:39.219Z,100648.56
2018-02-20T04:11:11.148Z,100654.97
2018-02-20T04:13:40.967Z,100649.25
2018-02-20T04:16:12.088Z,100647.04
2018-02-20T04:18:43.257Z,100636.92
2018-02-20T04:21:14.867Z,100648.39
2018-02-20T04:23:45.400Z,100639.30
2018-02-20T04:26:15.983Z,100641.84
2018-02-20T04:28:47.041Z,100644.18
2018-02-20T04:31:18.598Z,100643.67
2018-02-20T04:33:49.148Z,100640.24
2018-02-20T04:36:19.612Z,100643.33
2018-02-20T04:38:50.784Z,100639.47
2018-02-20T04:41:21.188Z,100642.08
2018-02-20T04:43:52.084Z,100640.86
2018-02-20T04:46:23.987Z,100638.81
2018-02-20T04:48:54.401Z,100639.73
2018-02-20T04:51:25.888Z,100644.54
2018-02-20T04:53:57.139Z,100648.09
2018-02-20T04:56:26.781Z,100651.95
2018-02-20T04:58:57.643Z,100652.42
2018-02-20T05:01:28.850Z,100646.53
2018-02-20T05:04:00.415Z,100649.48
2018-02-20T05:09:08.941Z,100640.13
2018-02-20T05:11:38.039Z,100642.02
2018-02-20T05:14:07.127Z,100638.52
2018-02-20T05:16:39.467Z,100636.31
2018-02-20T05:19:08.558Z,100639.34
2018-02-20T05:21:37.652Z,100646.74
2018-02-20T05:24:08.120Z,100640.64
2018-02-20T05:26:38.326Z,100639.86
2018-02-20T05:29:09.327Z,100635.66
2018-02-20T05:31:39.796Z,100638.09
2018-02-20T05:34:11.460Z,100637.73
2018-02-20T05:36:42.871Z,100646.40
2018-02-20T05:39:13.727Z,100651.64
2018-02-20T05:41:43.248Z,100649.47
2018-02-20T05:44:14.700Z,100658.48
2018-02-20T05:46:45.257Z,100644.53
2018-02-20T05:49:16.041Z,100656.61
2018-02-20T05:51:46.909Z,100654.14
2018-02-20T05:54:17.121Z,100662.97
2018-02-20T05:56:47.512Z,100659.42
2018-02-20T05:59:18.461Z,100664.39
2018-02-20T06:01:51.879Z,100667.51
2018-02-20T06:04:21.454Z,100665.13
2018-02-20T06:06:51.587Z,100669.77
2018-02-20T06:09:22.583Z,100669.45
2018-02-20T06:11:52.995Z,100679.84
2018-02-20T06:14:23.968Z,100677.77
2018-02-20T06:16:54.862Z,100667.56
2018-02-20T06:19:26.432Z,100662.59
2018-02-20T06:21:57.962Z,100668.95
2018-02-20T06:24:29.506Z,100664.15
2018-02-20T06:26:59.328Z,100664.06
2018-02-20T06:29:30.017Z,100672.33
2018-02-20T06:32:00.535Z,100669.56
2018-02-20T06:34:31.075Z,100665.75
2018-02-20T06:37:01.946Z,100665.98
2018-02-20T06:39:32.651Z,100658.95
2018-02-20T06:42:04.079Z,100662.67
2018-02-20T06:44:35.067Z,100664.28
2018-02-20T06:47:05.692Z,100664.15
2018-02-20T06:49:36.579Z,100672.16
2018-02-20T06:52:07.100Z,100659.91
2018-02-20T06:54:37.926Z,100664.70
2018-02-20T06:57:08.763Z,100673.20
2018-02-20T06:59:39.711Z,100673.72
2018-02-20T07:02:10.611Z,100672.64
2018-02-20T07:04:42.039Z,100671.13
2018-02-20T07:07:12.938Z,100674.59
2018-02-20T07:09:44.000Z,100672.68
2018-02-20T07:12:14.836Z,100667.73
2018-02-20T07:14:45.621Z,100667.31
2018-02-20T07:17:15.968Z,100673.80
2018-02-20T07:19:46.927Z,100670.94
2018-02-20T07:22:17.775Z,100673.92
2018-02-20T07:24:48.692Z,100672.36
2018-02-20T07:27:19.285Z,100670.02
2018-02-20T07:29:50.904Z,100674.13
2018-02-20T07:32:21.755Z,100663.35
2018-02-20T07:34:52.086Z,100666.89
2018-02-20T07:37:22.515Z,100660.21
2018-02-20T07:39:53.283Z,100666.50
2018-02-20T07:42:24.195Z,100662.08
2018-02-20T07:44:55.185Z,100660.66
2018-02-20T07:47:26.423Z,100659.38
2018-02-20T07:49:57.473Z,100661.92
2018-02-20T07:52:27.144Z,100668.34
2018-02-20T07:54:58.808Z,100672.44
2018-02-20T07:57:29.332Z,100670.91
2018-02-20T08:00:00.197Z,100678.63
2018-02-20T08:02:31.475Z,100672.55
2018-02-20T08:05:02.312Z,100675.97
2018-02-20T08:07:33.203Z,100672.44
2018-02-20T08:10:04.238Z,100678.80
2018-02-20T08:12:34.817Z,100677.33
2018-02-20T08:15:06.480Z,100677.48
2018-02-20T08:17:37.904Z,100674.00
2018-02-20T08:20:08.799Z,100667.61
2018-02-20T08:22:39.647Z,100672.90
2018-02-20T08:25:10.629Z,100674.73
2018-02-20T08:27:42.465Z,100680.51
2018-02-20T08:30:12.911Z,100674.22
2018-02-20T08:32:43.739Z,100682.84
2018-02-20T08:35:14.689Z,100684.44
2018-02-20T08:37:45.560Z,100682.05
2018-02-20T08:40:16.943Z,100681.02
2018-02-20T08:42:47.789Z,100683.63
2018-02-20T08:45:18.693Z,100674.24
2018-02-20T08:47:49.556Z,100678.19
2018-02-20T08:50:20.903Z,100674.15
2018-02-20T08:52:51.771Z,100671.13
2018-02-20T08:55:22.649Z,100671.13
2018-02-20T08:57:53.896Z,100675.12
2018-02-20T09:00:24.804Z,100662.68
2018-02-20T09:02:55.614Z,100670.63
2018-02-20T09:05:26.983Z,100669.03
2018-02-20T09:07:57.721Z,100660.72
2018-02-20T09:10:28.687Z,100659.85
2018-02-20T09:12:59.182Z,100654.95
2018-02-20T09:15:29.912Z,100659.59
2018-02-20T09:18:00.733Z,100652.97
2018-02-20T09:20:31.685Z,100651.63
2018-02-20T09:23:03.034Z,100647.87
2018-02-20T09:25:33.989Z,100651.38
2018-02-20T09:28:04.807Z,100646.98
2018-02-20T09:30:35.681Z,100648.40
2018-02-20T09:33:07.096Z,100641.99
2018-02-20T09:35:37.860Z,100646.44
2018-02-20T09:38:08.171Z,100645.42
2018-02-20T09:40:38.618Z,100640.81
2018-02-20T09:43:09.184Z,100645.63
2018-02-20T09:45:40.658Z,100647.53
2018-02-20T09:48:11.953Z,100645.66
2018-02-20T09:50:43.484Z,100649.14
2018-02-20T09:53:14.257Z,100644.01
2018-02-20T09:55:45.191Z,100645.97
2018-02-20T09:58:14.756Z,100644.78
2018-02-20T10:00:45.279Z,100643.80
2018-02-20T10:03:16.846Z,100643.13
2018-02-20T10:05:47.733Z,100655.78
2018-02-20T10:08:21.911Z,100644.42
2018-02-20T10:10:51.509Z,100644.00
2018-02-20T10:13:21.155Z,100645.70
2018-02-20T10:15:52.866Z,100643.06
2018-02-20T10:18:23.368Z,100647.41
2018-02-20T10:20:54.042Z,100647.03
2018-02-20T10:23:24.834Z,100643.12
2018-02-20T10:25:56.258Z,100638.61
2018-02-20T10:28:27.003Z,100629.27
2018-02-20T10:30:57.915Z,100628.72
2018-02-20T10:33:29.157Z,100626.36
2018-02-20T10:35:59.856Z,100625.42
2018-02-20T10:38:30.700Z,100623.97
2018-02-20T10:41:01.080Z,100614.94
2018-02-20T10:43:31.536Z,100619.73
2018-02-20T10:46:02.243Z,100613.34
2018-02-20T10:48:33.117Z,100610.63
2018-02-20T10:51:03.868Z,100613.73
2018-02-20T10:53:34.378Z,100616.20
2018-02-20T10:56:04.152Z,100608.27
2018-02-20T10:58:34.780Z,100610.30
2018-02-20T11:01:06.057Z,100602.86
2018-02-20T11:03:39.160Z,100603.70
2018-02-20T11:06:09.694Z,100597.14
2018-02-20T11:08:40.506Z,100600.61
2018-02-20T11:11:11.152Z,100597.69
2018-02-20T11:13:42.380Z,100598.21
2018-02-20T11:16:13.230Z,100594.58
2018-02-20T11:18:44.111Z,100598.03
2018-02-20T11:21:14.582Z,100588.67
2018-02-20T11:23:45.189Z,100589.26
2018-02-20T11:26:16.469Z,100594.82
2018-02-20T11:28:47.107Z,100593.55
2018-02-20T11:31:18.463Z,100591.08
2018-02-20T11:33:49.831Z,100594.58
2018-02-20T11:36:20.717Z,100586.99
2018-02-20T11:38:51.608Z,100584.27
2018-02-20T11:41:26.277Z,100573.89
2018-02-20T11:43:55.369Z,100579.35
2018-02-20T11:46:25.221Z,100576.02
2018-02-20T11:48:55.953Z,100572.92
2018-02-20T11:51:27.346Z,100575.44
2018-02-20T11:53:57.996Z,100574.69
2018-02-20T11:56:28.841Z,100567.02
2018-02-20T11:58:59.720Z,100560.16
2018-02-20T12:01:30.761Z,100558.20
2018-02-20T12:04:01.320Z,100546.92
2018-02-20T12:06:31.509Z,100551.74
2018-02-20T12:09:02.061Z,100553.63
2018-02-20T12:11:32.848Z,100550.03
2018-02-20T12:14:03.806Z,100545.34
2018-02-20T12:16:34.806Z,100537.99
2018-02-20T12:19:05.620Z,100537.20
2018-02-20T12:21:36.171Z,100534.31
2018-02-20T12:24:06.824Z,100530.12
2018-02-20T12:26:37.303Z,100531.38
2018-02-20T12:29:07.946Z,100528.17
2018-02-20T12:31:38.737Z,100531.87
2018-02-20T12:34:09.616Z,100527.40
2018-02-20T12:36:40.568Z,100526.80
2018-02-20T12:39:11.928Z,100526.41
2018-02-20T12:41:42.777Z,100528.45
2018-02-20T12:44:13.728Z,100532.75
2018-02-20T12:46:44.520Z,100532.06
2018-02-20T12:49:15.887Z,100525.29
2018-02-20T12:51:46.704Z,100525.96
2018-02-20T12:54:17.636Z,100522.97
2018-02-20T12:56:48.960Z,100527.84
2018-02-20T12:59:19.833Z,100522.97
2018-02-20T13:01:50.958Z,100515.75
2018-02-20T13:04:21.847Z,100523.95
2018-02-20T13:06:52.748Z,100522.27
2018-02-20T13:09:23.288Z,100517.92
2018-02-20T13:11:53.887Z,100520.20
2018-02-20T13:14:24.758Z,100521.54
2018-02-20T13:16:55.593Z,100522.95
2018-02-20T13:19:26.925Z,100525.09
2018-02-20T13:21:57.388Z,100524.12
2018-02-20T13:24:27.800Z,100518.64
2018-02-20T13:26:58.342Z,100515.44
2018-02-20T13:29:29.002Z,100516.22
2018-02-20T13:31:59.832Z,100522.38
2018-02-20T13:34:30.759Z,100524.79
2018-02-20T13:37:01.616Z,100518.33
2018-02-20T13:39:32.598Z,100516.57
2018-02-20T13:42:03.879Z,100528.41
2018-02-20T13:44:39.966Z,100519.20
2018-02-20T13:47:09.061Z,100519.81
2018-02-20T13:49:38.186Z,100518.20
2018-02-20T13:52:08.755Z,100522.43
2018-02-20T13:54:39.199Z,100523.22
2018-02-20T13:57:09.898Z,100523.54
2018-02-20T13:59:41.090Z,100528.14
2018-02-20T14:02:11.911Z,100533.66
2018-02-20T14:04:43.143Z,100521.98
2018-02-20T14:07:13.664Z,100526.80
2018-02-20T14:09:44.123Z,100520.88
2018-02-20T14:12:14.992Z,100526.80
2018-02-20T14:14:45.807Z,100522.55
2018-02-20T14:17:16.692Z,100520.77
2018-02-20T14:19:47.723Z,100523.77
2018-02-20T14:22:19.264Z,100522.03
2018-02-20T14:24:50.233Z,100521.13
2018-02-20T14:27:20.868Z,100515.44
2018-02-20T14:29:51.797Z,100521.09
2018-02-20T14:32:22.703Z,100517.41
2018-02-20T14:34:53.652Z,100523.41
2018-02-20T14:37:24.517Z,100513.80
2018-02-20T14:40:08.763Z,100516.95
2018-02-20T14:42:38.266Z,100513.05
2018-02-20T14:45:07.376Z,100511.84
2018-02-20T14:47:36.522Z,100522.02
2018-02-20T14:50:05.631Z,100515.49
2018-02-20T14:52:34.742Z,100516.99
2018-02-20T14:55:03.983Z,100506.22
2018-02-20T14:57:33.096Z,100510.12
2018-02-20T15:00:03.677Z,100514.93
2018-02-20T15:02:34.209Z,100508.75
2018-02-20T15:05:04.952Z,100515.95
2018-02-20T15:07:35.818Z,100516.64
2018-02-20T15:10:06.698Z,100520.48
2018-02-20T15:12:37.576Z,100515.98
2018-02-20T15:15:08.540Z,100517.46
2018-02-20T15:17:38.899Z,100518.00
2018-02-20T15:20:09.813Z,100521.94
2018-02-20T15:22:40.665Z,100524.64
2018-02-20T15:25:12.048Z,100518.04
2018-02-20T15:27:42.939Z,100527.94
2018-02-20T15:30:13.812Z,100528.69
2018-02-20T15:32:44.676Z,100527.14
2018-02-20T15:35:15.868Z,100533.89
2018-02-20T15:37:46.797Z,100536.31
2018-02-20T15:40:17.665Z,100528.31
2018-02-20T15:42:48.677Z,100533.23
2018-02-20T15:45:19.689Z,100536.41
2018-02-20T15:47:50.501Z,100545.69
2018-02-20T15:50:21.876Z,100546.57
2018-02-20T15:52:52.654Z,100555.48
2018-02-20T15:55:23.092Z,100552.05
2018-02-20T15:57:53.826Z,100557.30
2018-02-20T16:00:24.728Z,100566.77
2018-02-20T16:02:55.557Z,100560.53
2018-02-20T16:05:27.025Z,100564.38
2018-02-20T16:07:57.699Z,100557.67
2018-02-20T16:10:28.652Z,100562.34
2018-02-20T16:12:59.501Z,100570.89
2018-02-20T16:15:29.633Z,100570.00
2018-02-20T16:18:00.912Z,100572.04
2018-02-20T16:20:31.799Z,100578.66
2018-02-20T16:23:03.335Z,100570.20
2018-02-20T16:25:33.826Z,100561.98
2018-02-20T16:28:04.309Z,100561.49
2018-02-20T16:30:34.966Z,100570.52
2018-02-20T16:33:05.832Z,100565.08
2018-02-20T16:35:36.906Z,100567.91
2018-02-20T16:38:07.413Z,100573.61
2018-02-20T16:40:37.960Z,100574.14
2018-02-20T16:43:08.871Z,100582.77
2018-02-20T16:45:39.845Z,100582.75
2018-02-20T16:48:10.709Z,100578.95
2018-02-20T16:50:41.699Z,100579.16
2018-02-20T16:53:12.574Z,100579.31
2018-02-20T16:55:43.969Z,100583.81
2018-02-20T16:58:14.799Z,100585.81
2018-02-20T17:00:45.442Z,100589.84
2018-02-20T17:03:17.197Z,100593.98
2018-02-20T17:05:47.967Z,100596.80
2018-02-20T17:08:18.545Z,100604.56
2018-02-20T17:10:49.004Z,100602.59
2018-02-20T17:13:19.896Z,100602.42
2018-02-20T17:15:50.792Z,100606.08
2018-02-20T17:18:21.713Z,100610.29
2018-02-20T17:20:52.721Z,100615.48
2018-02-20T17:23:23.582Z,100608.38
2018-02-20T17:25:55.040Z,100615.70
2018-02-20T17:28:25.894Z,100617.20
2018-02-20T17:30:56.830Z,100617.48
2018-02-20T17:33:27.993Z,100619.92
2018-02-20T17:35:58.940Z,100621.20
2018-02-20T17:38:29.452Z,100624.50
2018-02-20T17:41:00.178Z,100621.64
2018-02-20T17:43:31.128Z,100623.09
2018-02-20T17:46:02.004Z,100625.53
2018-02-20T17:48:33.110Z,100624.58
2018-02-20T17:51:06.842Z,100627.77
2018-02-20T17:53:36.157Z,100636.56
2018-02-20T17:56:06.516Z,100632.53
2018-02-20T17:58:37.116Z,100629.44
2018-02-20T18:01:07.588Z,100632.30
2018-02-20T18:03:38.052Z,100626.74
2018-02-20T18:06:08.901Z,100633.47
2018-02-20T18:08:39.748Z,100631.92
2018-02-20T18:11:12.109Z,100629.87
2018-02-20T18:13:41.915Z,100630.99
2018-02-20T18:16:12.487Z,100630.35
2018-02-20T18:18:42.956Z,100629.68
2018-02-20T18:21:14.248Z,100633.34
2018-02-20T18:23:45.193Z,100632.48
2018-02-20T18:26:16.804Z,100651.97
2018-02-20T18:28:47.500Z,100646.63
2018-02-20T18:31:18.436Z,100653.72
2018-02-20T18:33:48.943Z,100653.45
2018-02-20T18:36:19.936Z,100652.66
2018-02-20T18:38:49.709Z,100653.27
2018-02-20T18:41:20.795Z,100659.12
2018-02-20T18:43:51.745Z,100658.48
2018-02-20T18:46:22.723Z,100663.09
2018-02-20T18:48:53.218Z,100656.30
2018-02-20T18:51:24.509Z,100659.15
2018-02-20T18:53:54.951Z,100665.12
2018-02-20T18:56:25.589Z,100666.17
2018-02-20T18:58:55.986Z,100669.45
2018-02-20T19:01:26.613Z,100665.33
2018-02-20T19:03:59.527Z,100670.20
2018-02-20T19:06:29.444Z,100672.06
2018-02-20T19:08:59.337Z,100673.59
2018-02-20T19:11:29.913Z,100675.08
2018-02-20T19:14:00.828Z,100682.29
2018-02-20T19:16:32.588Z,100680.40
2018-02-20T19:19:02.260Z,100682.86
2018-02-20T19:21:33.497Z,100684.41
2018-02-20T19:24:03.698Z,100684.26
2018-02-20T19:26:34.278Z,100684.43
2018-02-20T19:29:04.448Z,100684.70
2018-02-20T19:31:34.352Z,100647.70
2018-02-20T19:34:05.786Z,100681.52
2018-02-20T19:36:36.464Z,100677.50
2018-02-20T19:39:06.962Z,100675.50
2018-02-20T19:41:37.572Z,100673.87
2018-02-20T19:44:08.029Z,100674.42
2018-02-20T19:46:39.031Z,100677.03
2018-02-20T19:49:09.903Z,100672.85
2018-02-20T19:51:40.913Z,100680.91
2018-02-20T19:54:11.468Z,100671.67
2018-02-20T19:56:42.049Z,100671.89
2018-02-20T19:59:12.427Z,100678.59
2018-02-20T20:01:43.059Z,100683.22
2018-02-20T20:04:13.905Z,100684.19
2018-02-20T20:06:44.800Z,100688.72
2018-02-20T20:09:15.199Z,100693.61
2018-02-20T20:11:46.003Z,100685.84
2018-02-20T20:14:16.864Z,100683.88
2018-02-20T20:16:47.878Z,100692.64
2018-02-20T20:19:19.225Z,100690.73
2018-02-20T20:21:49.964Z,100696.50
2018-02-20T20:24:20.882Z,100689.27
2018-02-20T20:26:51.500Z,100692.00
2018-02-20T20:29:23.120Z,100698.23
2018-02-20T20:31:53.699Z,100690.91
2018-02-20T20:34:24.275Z,100696.38
2018-02-20T20:36:54.924Z,100694.05
2018-02-20T20:39:25.792Z,100699.76
2018-02-20T20:41:56.759Z,100697.73
2018-02-20T20:44:28.123Z,100690.67
2018-02-20T20:46:59.284Z,100696.93
2018-02-20T20:49:29.978Z,100700.60
2018-02-20T20:52:00.944Z,100705.99
2018-02-20T20:54:32.179Z,100698.30
2018-02-20T20:57:04.989Z,100694.44
2018-02-20T20:59:34.169Z,100697.49
2018-02-20T21:02:04.099Z,100698.51
2018-02-20T21:04:35.031Z,100692.58
2018-02-20T21:07:05.860Z,100691.33
2018-02-20T21:09:36.763Z,100688.83
2018-02-20T21:12:07.657Z,100689.36
2018-02-20T21:14:39.027Z,100694.63
2018-02-20T21:17:08.973Z,100695.17
2018-02-20T21:19:39.571Z,100700.11
2018-02-20T21:22:10.191Z,100699.30
2018-02-20T21:24:41.484Z,100699.06
2018-02-20T21:27:12.857Z,100707.03
2018-02-20T21:29:43.784Z,100699.70
2018-02-20T21:32:14.612Z,100699.42
2018-02-20T21:34:45.951Z,100697.08
2018-02-20T21:37:16.785Z,100701.95
2018-02-20T21:39:47.680Z,100701.52
2018-02-20T21:42:18.547Z,100708.94
2018-02-20T21:44:49.888Z,100702.98
2018-02-20T21:47:20.716Z,100706.98
2018-02-20T21:49:51.651Z,100711.80
2018-02-20T21:52:22.571Z,100707.66
2018-02-20T21:54:53.974Z,100710.38
2018-02-20T21:57:24.804Z,100707.96
2018-02-20T21:59:55.705Z,100708.45
2018-02-20T22:02:26.572Z,100713.33
2018-02-20T22:04:58.044Z,100712.61
2018-02-20T22:07:28.808Z,100715.80
2018-02-20T22:09:59.245Z,100720.28
2018-02-20T22:12:29.823Z,100719.13
2018-02-20T22:15:00.782Z,100715.33
2018-02-20T22:17:31.288Z,100714.08
2018-02-20T22:20:02.032Z,100719.42
2018-02-20T22:22:32.908Z,100720.01
2018-02-20T22:25:03.491Z,100719.23
2018-02-20T22:27:33.999Z,100724.54
2018-02-20T22:30:04.945Z,100721.56
2018-02-20T22:32:35.880Z,100716.48
2018-02-20T22:35:06.799Z,100722.23
2018-02-20T22:37:37.300Z,100724.88
2018-02-20T22:40:07.936Z,100718.56
2018-02-20T22:42:38.792Z,100726.03
2018-02-20T22:45:09.767Z,100727.05
2018-02-20T22:47:41.224Z,100726.62
2018-02-20T22:50:11.583Z,100724.63
2018-02-20T22:52:42.108Z,100721.66
2018-02-20T22:55:12.889Z,100727.88
2018-02-20T22:57:43.352Z,100724.02
2018-02-20T23:00:14.014Z,100726.27
2018-02-20T23:02:44.900Z,100719.23
2018-02-20T23:05:15.869Z,100722.31
2018-02-20T23:07:46.691Z,100716.20
2018-02-20T23:10:17.645Z,100720.19
2018-02-20T23:12:48.513Z,100719.84
2018-02-20T23:15:19.956Z,100715.08
2018-02-20T23:17:50.792Z,100716.91
2018-02-20T23:20:21.675Z,100713.53
2018-02-20T23:22:52.940Z,100717.97
2018-02-20T23:25:25.046Z,100721.95
2018-02-20T23:27:55.763Z,100724.56
2018-02-20T23:30:26.283Z,100725.05
2018-02-20T23:32:56.854Z,100730.78
2018-02-20T23:35:27.447Z,100718.25
2018-02-20T23:37:57.891Z,100723.94
2018-02-20T23:40:28.837Z,100724.45
2018-02-20T23:42:59.678Z,100725.80
2018-02-20T23:45:30.945Z,100724.64
2018-02-20T23:48:01.784Z,100724.25
2018-02-20T23:50:32.668Z,100730.33
2018-02-20T23:53:03.911Z,100723.62
2018-02-20T23:55:34.803Z,100732.78
2018-02-20T23:58:05.650Z,100730.65
